Latest Weather Observations for Wattamolla

IDN60901

Issued at 12:51 pm EDT Thursday 23 January 2020 (issued every 10 minutes, with the page automatically refreshed every 10 minutes)

About weather observations | Map of Sydney area stations | Latest observations for Sydney area | Other Formats
Station Details ID: 066208 Name: WATTAMOLLA AWS Lat: -34.14 Lon: 151.12 Height: 44.0 m
Data from the previous 72 hours. | See also: Recent months at Wattamolla
Date/Time
EDT
Temp
°C
App
Temp
°C
Dew
Point
°C
Rel
Hum
%
Delta-T
°C
Wind Press
QNH
hPa
Press
MSL
hPa
Rain since
9am
mm
Dir  Spd
km/h
Gust
km/h
Spd
kts
Gust
kts
23/12:44pm - - - - - NNW 33 52 18 28 - - -
23/12:30pm - - - - - NNW 37 54 20 29 - - -
23/12:00pm - - - - - NNW 33 56 18 30 - - -
23/11:30am - - - - - NNW 33 61 18 33 - - -
23/11:21am - - - - - N 32 54 17 29 - - -
23/11:00am - - - - - N 30 43 16 23 - - -
23/10:30am - - - - - N 28 39 15 21 - - -
23/10:00am - - - - - NNW 24 33 13 18 - - -
23/09:30am - - - - - NNW 26 37 14 20 - - -
23/09:00am - - - - - N 26 33 14 18 - - -
23/08:30am - - - - - NNW 24 39 13 21 - - -
23/08:00am - - - - - NNW 26 39 14 21 - - -
23/07:30am - - - - - NNW 24 35 13 19 - - -
23/07:00am - - - - - NNW 20 30 11 16 - - -
23/06:30am - - - - - NNW 17 28 9 15 - - -
23/06:00am - - - - - NNW 19 26 10 14 - - -
23/05:30am - - - - - NNW 19 30 10 16 - - -
23/05:00am - - - - - N 22 32 12 17 - - -
23/04:30am - - - - - N 19 24 10 13 - - -
23/04:00am - - - - - N 17 20 9 11 - - -
23/03:30am - - - - - N 13 20 7 11 - - -
23/03:00am - - - - - N 11 17 6 9 - - -
23/02:30am - - - - - N 15 17 8 9 - - -
23/02:00am - - - - - NNW 17 20 9 11 - - -
23/01:30am - - - - - NNW 13 17 7 9 - - -
23/01:00am - - - - - N 15 17 8 9 - - -
23/12:30am - - - - - NNW 15 17 8 9 - - -
23/12:00am - - - - - N 15 19 8 10 - - -
 
Date/Time
EDT
Temp
°C
App
Temp
°C
Dew
Point
°C
Rel
Hum
%
Delta-T
°C
Wind Press
QNH
hPa
Press
MSL
hPa
Rain since
9am
mm
Dir  Spd
km/h
Gust
km/h
Spd
kts
Gust
kts
22/11:30pm - - - - - N 24 32 13 17 - - -
22/11:00pm - - - - - N 26 32 14 17 - - -
22/10:30pm - - - - - N 24 30 13 16 - - -
22/10:00pm - - - - - N 28 39 15 21 - - -
22/09:30pm - - - - - N 32 41 17 22 - - -
22/09:00pm - - - - - N 30 41 16 22 - - -
22/08:30pm - - - - - N 32 48 17 26 - - -
22/08:00pm - - - - - N 24 37 13 20 - - -
22/07:30pm - - - - - NNE 22 32 12 17 - - -
22/07:00pm - - - - - NNE 22 33 12 18 - - -
22/06:30pm - - - - - NNE 26 39 14 21 - - -
22/06:00pm - - - - - NNE 26 39 14 21 - - -
22/05:45pm - - - - - NNE 28 46 15 25 - - -
22/05:30pm - - - - - NNE 30 41 16 22 - - -
22/05:00pm - - - - - NNE 32 43 17 23 - - -
22/04:30pm - - - - - NNE 32 44 17 24 - - -
22/04:13pm - - - - - NNE 32 52 17 28 - - -
22/04:00pm - - - - - NNE 26 41 14 22 - - -
22/03:30pm - - - - - NNE 28 39 15 21 - - -
22/03:00pm - - - - - NNE 26 39 14 21 - - -
22/02:30pm - - - - - NE 26 35 14 19 - - -
22/02:00pm - - - - - NE 28 39 15 21 - - -
22/01:30pm - - - - - NE 28 37 15 20 - - -
22/01:00pm - - - - - NE 24 39 13 21 - - -
22/12:30pm - - - - - NE 24 33 13 18 - - -
22/12:00pm - - - - - NE 24 33 13 18 - - -
22/11:30am - - - - - NE 20 30 11 16 - - -
22/11:00am - - - - - NE 19 26 10 14 - - -
22/10:30am - - - - - N 15 22 8 12 - - -
22/10:00am - - - - - NNW 19 26 10 14 - - -
22/09:30am - - - - - N 15 24 8 13 - - -
22/09:00am - - - - - N 17 22 9 12 - - -
22/08:30am - - - - - N 11 15 6 8 - - -
22/08:00am - - - - - NNW 9 13 5 7 - - -
22/07:30am - - - - - NW 11 13 6 7 - - -
22/07:00am - - - - - NW 15 15 8 8 - - -
22/06:30am - - - - - NW 15 17 8 9 - - -
22/06:00am - - - - - NW 13 13 7 7 - - -
22/05:30am - - - - - NW 15 15 8 8 - - -
22/05:00am - - - - - WNW 13 13 7 7 - - -
22/04:30am - - - - - WNW 15 17 8 9 - - -
22/04:00am - - - - - WNW 13 15 7 8 - - -
22/03:30am - - - - - WNW 15 17 8 9 - - -
22/03:00am - - - - - WNW 13 15 7 8 - - -
22/02:30am - - - - - NW 15 15 8 8 - - -
22/02:00am - - - - - WNW 13 13 7 7 - - -
22/01:30am - - - - - NW 15 15 8 8 - - -
22/01:00am - - - - - NW 15 17 8 9 - - -
22/12:30am - - - - - WNW 13 15 7 8 - - -
22/12:00am - - - - - NW 13 15 7 8 - - -
 
Date/Time
EDT
Temp
°C
App
Temp
°C
Dew
Point
°C
Rel
Hum
%
Delta-T
°C
Wind Press
QNH
hPa
Press
MSL
hPa
Rain since
9am
mm
Dir  Spd
km/h
Gust
km/h
Spd
kts
Gust
kts
21/11:30pm - - - - - NW 13 15 7 8 - - -
21/11:00pm - - - - - NW 11 13 6 7 - - -
21/10:30pm - - - - - CALM 0 6 0 3 - - -
21/10:00pm - - - - - SE 4 7 2 4 - - -
21/09:30pm - - - - - ESE 9 13 5 7 - - -
21/09:00pm - - - - - ESE 13 17 7 9 - - -
21/08:30pm - - - - - ESE 11 17 6 9 - - -
21/08:00pm - - - - - ESE 11 15 6 8 - - -
21/07:30pm - - - - - ESE 13 19 7 10 - - -
21/07:00pm - - - - - ESE 13 24 7 13 - - -
21/06:30pm - - - - - E 15 22 8 12 - - -
21/06:00pm - - - - - ESE 17 22 9 12 - - -
21/05:30pm - - - - - ESE 24 32 13 17 - - -
21/05:00pm - - - - - SE 28 33 15 18 - - -
21/04:30pm - - - - - SE 26 30 14 16 - - -
21/04:00pm - - - - - SE 28 32 15 17 - - -
21/03:30pm - - - - - SE 26 32 14 17 - - -
21/03:00pm - - - - - SE 26 28 14 15 - - -
21/02:30pm - - - - - SSE 26 30 14 16 - - -
21/02:00pm - - - - - SSE 26 30 14 16 - - -
21/01:30pm - - - - - SSE 26 28 14 15 - - -
21/01:00pm - - - - - SSE 20 24 11 13 - - -
21/12:30pm - - - - - SSE 22 26 12 14 - - -
21/12:00pm - - - - - SSE 15 22 8 12 - - -
21/11:30am - - - - - S 20 35 11 19 - - -
21/11:00am - - - - - SSW 15 28 8 15 - - -
21/10:30am - - - - - WSW 17 28 9 15 - - -
21/10:00am - - - - - S 13 20 7 11 - - -
21/09:30am - - - - - W 17 30 9 16 - - -
21/09:00am - - - - - S 9 15 5 8 - - -
21/08:30am - - - - - S 17 26 9 14 - - -
21/08:00am - - - - - W 13 20 7 11 - - -
21/07:30am - - - - - NW 17 20 9 11 - - -
21/07:00am - - - - - NW 19 24 10 13 - - -
21/06:30am - - - - - WNW 22 28 12 15 - - -
21/06:00am - - - - - NW 22 26 12 14 - - -
21/05:30am - - - - - NW 17 20 9 11 - - -
21/05:00am - - - - - NW 19 24 10 13 - - -
21/04:30am - - - - - NW 19 22 10 12 - - -
21/04:00am - - - - - NW 20 22 11 12 - - -
21/03:30am - - - - - WNW 22 26 12 14 - - -
21/03:00am - - - - - WNW 22 26 12 14 - - -
21/02:30am - - - - - WNW 22 26 12 14 - - -
21/02:00am - - - - - WNW 20 24 11 13 - - -
21/01:30am - - - - - NW 22 28 12 15 - - -
21/01:00am - - - - - NW 22 28 12 15 - - -
21/12:30am - - - - - NW 19 20 10 11 - - -
21/12:00am - - - - - NW 19 20 10 11 - - -
 
Date/Time
EDT
Temp
°C
App
Temp
°C
Dew
Point
°C
Rel
Hum
%
Delta-T
°C
Wind Press
QNH
hPa
Press
MSL
hPa
Rain since
9am
mm
Dir  Spd
km/h
Gust
km/h
Spd
kts
Gust
kts
20/11:30pm - - - - - NW 17 20 9 11 - - -
20/11:00pm - - - - - NW 13 15 7 8 - - -
20/10:30pm - - - - - WNW 9 13 5 7 - - -
20/10:00pm - - - - - NW 11 15 6 8 - - -
20/09:30pm - - - - - SW 11 15 6 8 - - -
20/09:00pm - - - - - SW 13 13 7 7 - - -
20/08:30pm - - - - - SSW 11 15 6 8 - - -
20/08:00pm - - - - - SSW 9 13 5 7 - - -
20/07:30pm - - - - - S 13 17 7 9 - - -
20/07:00pm - - - - - S 15 19 8 10 - - -
20/06:30pm - - - - - SSW 13 22 7 12 - - -
20/06:00pm - - - - - S 11 17 6 9 - - -
20/05:30pm - - - - - ENE 24 67 13 36 - - -
20/05:26pm - - - - - N 28 67 15 36 - - -
20/05:22pm - - - - - WNW 32 67 17 36 - - -
20/05:17pm - - - - - SW 32 50 17 27 - - -
20/05:11pm - - - - - SSW 32 50 17 27 - - -
20/05:00pm - - - - - S 30 48 16 26 - - -
20/04:57pm - - - - - S 28 44 15 24 - - -
20/04:30pm - - - - - S 13 20 7 11 - - -
20/04:00pm - - - - - S 9 15 5 8 - - -
20/03:30pm - - - - - SSE 19 35 10 19 - - -
20/03:21pm - - - - - WSW 30 78 16 42 - - -
20/03:19pm - - - - - SW 28 78 15 42 - - -
20/03:00pm - - - - - ENE 13 20 7 11 - - -
20/02:30pm - - - - - ENE 15 20 8 11 - - -
20/02:00pm - - - - - ENE 13 19 7 10 - - -
20/01:30pm - - - - - NE 15 22 8 12 - - -
20/01:00pm - - - - - ENE 13 17 7 9 - - -

Latest Capital City Observations: Canberra | Sydney | Melbourne | Brisbane | Adelaide | Perth | Hobart | Darwin

Other formats

Comma delimited format used in spreadsheet applications
http://www.bom.gov.au/fwo/IDN60901/IDN60901.95752.axf

JavaScript Object Notation format (JSON) in row-major order
http://www.bom.gov.au/fwo/IDN60901/IDN60901.95752.json

Data quality

Most of these data are generated automatically and are frequently updated. Quality checks on data are not normally performed. It is possible for incorrect values to appear. Refer to information at About Latest Weather Observations and please check the disclaimer before using these data.